Time;durP1;ratioP1;P1;durP2;ratioP2;P2;SDS_P1;SDS_P2;PMS_P1;PMS_P2;Temp;Humidity;BMP_temperature;BMP_pressure;BME280_temperature;BME280_humidity;BME280_pressure;Samples;Min_cycle;Max_cycle;Signal;HPM_P1;HPM_P2
2021/07/04 00:00:45;;;;;;;3.78;3.15;;;;;;;17.64;95.53;100647.88;4936549;29;20365;-84
2021/07/04 00:03:11;;;;;;;4.95;2.70;;;;;;;17.65;96.03;100647.47;4927006;29;20503;-84
2021/07/04 00:05:41;;;;;;;3.53;2.67;;;;;;;17.57;95.72;100643.28;4933874;29;20303;-84
2021/07/04 00:08:12;;;;;;;5.32;3.22;;;;;;;17.58;95.67;100650.25;4940884;28;20039;-84
2021/07/04 00:10:40;;;;;;;;;;;;;;;17.35;96.88;100650.03;4918711;29;20038;-84
2021/07/04 00:13:05;;;;;;;3.75;3.13;;;;;;;17.45;95.81;100659.28;4947203;29;19902;-84
2021/07/04 00:15:38;;;;;;;4.97;3.15;;;;;;;17.48;95.86;100653.06;4911735;28;20073;-84
2021/07/04 00:18:05;;;;;;;3.85;2.97;;;;;;;17.54;95.20;100648.75;4917131;29;20607;-84
2021/07/04 00:20:32;;;;;;;6.13;2.90;;;;;;;17.42;95.45;100651.94;4947966;29;20035;-85
2021/07/04 00:22:58;;;;;;;3.15;2.63;;;;;;;17.41;95.83;100651.16;4932190;29;20110;-84
2021/07/04 00:25:25;;;;;;;5.00;3.05;;;;;;;17.41;95.75;100650.38;4927173;29;20178;-84
2021/07/04 00:27:52;;;;;;;3.70;2.75;;;;;;;17.33;96.63;100646.16;4950491;29;20071;-84
2021/07/04 00:30:19;;;;;;;3.35;2.88;;;;;;;17.33;96.58;100648.88;4923181;29;20031;-84
2021/07/04 00:32:45;;;;;;;3.83;3.10;;;;;;;17.28;96.27;100646.59;4934444;29;20542;-84
2021/07/04 00:35:13;;;;;;;8.85;2.90;;;;;;;17.25;96.54;100644.69;4949758;29;20074;-84
2021/07/04 00:37:38;;;;;;;4.40;2.90;;;;;;;17.22;96.09;100650.91;4946361;29;20488;-84
2021/07/04 00:40:06;;;;;;;3.20;2.63;;;;;;;17.25;96.17;100645.44;4930855;29;20035;-84
2021/07/04 00:42:32;;;;;;;4.53;2.72;;;;;;;17.30;96.51;100642.31;4916039;29;20039;-85
2021/07/04 00:44:58;;;;;;;3.08;2.78;;;;;;;17.31;95.97;100645.78;4947811;29;20410;-85
2021/07/04 00:47:23;;;;;;;2.83;2.40;;;;;;;17.18;96.16;100640.06;4938632;29;20638;-85
2021/07/04 00:49:51;;;;;;;5.25;2.50;;;;;;;17.03;97.10;100636.63;4931986;29;20050;-86
2021/07/04 00:52:17;;;;;;;5.22;2.75;;;;;;;17.07;97.46;100636.63;4911599;29;20028;-85
2021/07/04 00:54:42;;;;;;;4.28;2.80;;;;;;;17.08;96.74;100638.16;4938931;29;20030;-85
2021/07/04 00:57:09;;;;;;;2.60;2.33;;;;;;;16.81;97.95;100626.28;4921181;29;20047;-85
2021/07/04 00:59:35;;;;;;;2.80;2.38;;;;;;;17.04;97.30;100629.25;4922511;29;20054;-85
2021/07/04 01:02:01;;;;;;;4.20;2.40;;;;;;;17.07;96.99;100631.19;4935419;28;20680;-85
2021/07/04 01:04:30;;;;;;;3.13;2.60;;;;;;;16.93;97.35;100623.88;4933553;29;20438;-85
2021/07/04 01:06:56;;;;;;;2.97;2.67;;;;;;;16.87;97.00;100624.69;4935670;29;20043;-85
2021/07/04 01:09:23;;;;;;;4.53;2.60;;;;;;;16.79;97.52;100631.34;4936700;29;20027;-85
2021/07/04 01:11:51;;;;;;;4.22;2.70;;;;;;;16.99;96.69;100625.00;4934417;29;20182;-85
2021/07/04 01:14:17;;;;;;;5.75;2.58;;;;;;;16.72;97.65;100626.72;4939029;29;20042;-85
2021/07/04 01:16:44;;;;;;;4.60;2.90;;;;;;;16.88;97.16;100631.66;4921040;29;20027;-85
2021/07/04 01:19:14;;;;;;;4.47;2.60;;;;;;;16.88;97.27;100626.22;4919971;29;20580;-85
2021/07/04 01:21:42;;;;;;;3.15;2.60;;;;;;;16.90;97.45;100621.94;4926982;29;20172;-85
2021/07/04 01:24:08;;;;;;;4.00;2.85;;;;;;;16.81;97.76;100618.13;4918162;29;20039;-85
2021/07/04 01:26:33;;;;;;;4.05;2.50;;;;;;;16.75;97.56;100622.44;4923869;29;20086;-85
2021/07/04 01:28:59;;;;;;;6.47;2.83;;;;;;;16.67;97.97;100629.06;4947936;29;20055;-85
2021/07/04 01:31:27;;;;;;;5.30;3.08;;;;;;;16.71;98.25;100621.66;4932421;29;20023;-86
2021/07/04 01:34:02;;;;;;;5.50;3.30;;;;;;;16.72;97.92;100625.94;4938963;29;20031;-85
2021/07/04 01:36:34;;;;;;;;;;;;;;;16.57;98.05;100617.06;4949020;28;20039;-85
2021/07/04 01:39:02;;;;;;;5.30;2.83;;;;;;;16.65;98.49;100615.09;4930309;29;20180;-85
2021/07/04 01:41:29;;;;;;;4.18;2.90;;;;;;;16.57;98.74;100617.06;4917900;29;20043;-85
2021/07/04 01:43:56;;;;;;;4.25;3.13;;;;;;;16.71;98.50;100618.94;4945917;29;20059;-85
2021/07/04 01:46:24;;;;;;;4.40;3.38;;;;;;;16.70;98.54;100612.75;4926300;29;20034;-85
2021/07/04 01:48:55;;;;;;;4.70;3.20;;;;;;;16.71;98.55;100606.13;4926480;29;20406;-85
2021/07/04 01:51:21;;;;;;;3.33;2.85;;;;;;;16.76;98.16;100605.69;4940671;29;20034;-85
2021/07/04 01:53:47;;;;;;;3.60;2.78;;;;;;;16.65;98.41;100601.50;4919241;29;20027;-85
2021/07/04 01:56:24;;;;;;;3.10;2.80;;;;;;;16.66;98.48;100598.41;4911862;29;20039;-86
2021/07/04 01:58:55;;;;;;;4.95;3.42;;;;;;;16.61;98.99;100600.72;4932178;29;20107;-85
2021/07/04 02:01:44;;;;;;;4.13;3.25;;;;;;;16.61;98.80;100603.44;4927226;29;20039;-85
2021/07/04 02:04:11;;;;;;;4.40;3.30;;;;;;;16.61;98.94;100598.00;4920739;29;20027;-85
2021/07/04 02:06:40;;;;;;;4.47;2.97;;;;;;;16.73;97.99;100597.56;4932508;29;20059;-85
2021/07/04 02:09:07;;;;;;;5.25;3.00;;;;;;;16.77;96.54;100603.75;4950281;29;20032;-85
2021/07/04 02:11:34;;;;;;;6.03;2.83;;;;;;;16.81;96.32;100601.81;4945354;29;20064;-85
2021/07/04 02:14:05;;;;;;;3.75;3.35;;;;;;;16.93;94.87;100595.91;4916378;29;20099;-85
2021/07/04 02:16:42;;;;;;;3.70;3.20;;;;;;;16.77;95.69;100606.47;4913587;29;20063;-85
2021/07/04 02:19:39;;;;;;;3.53;3.22;;;;;;;16.76;95.70;100596.78;4929350;29;20027;-85
2021/07/04 02:22:19;;;;;;;4.10;3.63;;;;;;;16.74;95.71;100604.56;4916911;29;20054;-85
2021/07/04 02:25:07;;;;;;;4.15;3.30;;;;;;;16.65;95.87;100598.78;4944721;28;20043;-86
2021/07/04 02:27:36;;;;;;;7.07;3.33;;;;;;;16.52;96.18;100586.81;4953774;29;20467;-85
2021/07/04 02:30:10;;;;;;;3.75;3.38;;;;;;;16.40;97.14;100598.09;4934334;28;20028;-85
2021/07/04 02:32:39;;;;;;;3.92;3.33;;;;;;;16.31;97.59;100595.03;4949704;29;20400;-85
2021/07/04 02:35:06;;;;;;;3.65;3.20;;;;;;;16.24;98.16;100596.59;4938288;29;20377;-85
2021/07/04 02:37:33;;;;;;;4.03;3.30;;;;;;;16.33;97.71;100596.19;4918900;28;20473;-85
2021/07/04 02:40:08;;;;;;;4.00;3.20;;;;;;;16.35;97.21;100601.22;4928694;29;20446;-85
2021/07/04 02:42:34;;;;;;;3.35;3.05;;;;;;;16.38;96.77;100600.44;4941440;29;20038;-85
2021/07/04 02:45:02;;;;;;;4.90;3.22;;;;;;;16.25;97.29;100598.16;4945478;28;20351;-85
2021/07/04 02:47:29;;;;;;;3.47;3.10;;;;;;;16.21;97.35;100602.84;4953557;29;20050;-85
2021/07/04 02:49:56;;;;;;;4.00;3.00;;;;;;;16.18;97.86;100603.59;4918041;29;20023;-85
2021/07/04 02:52:26;;;;;;;6.10;3.17;;;;;;;16.25;97.16;100603.59;4933093;29;20108;-85
2021/07/04 02:54:51;;;;;;;3.75;2.97;;;;;;;16.13;96.99;100595.09;4954116;28;20034;-85
2021/07/04 02:57:25;;;;;;;3.75;2.95;;;;;;;16.11;97.66;100608.28;4934907;29;20027;-85
2021/07/04 02:59:53;;;;;;;7.55;2.78;;;;;;;16.05;97.93;100604.44;4946923;29;20064;-85
2021/07/04 03:02:20;;;;;;;3.75;2.60;;;;;;;15.99;97.79;100603.28;4946688;29;20031;-85
2021/07/04 03:04:52;;;;;;;5.13;3.00;;;;;;;15.93;98.19;100604.88;4920639;29;20031;-85
2021/07/04 03:07:18;;;;;;;6.03;3.05;;;;;;;15.92;98.33;100601.38;4941990;29;20448;-85
2021/07/04 03:09:45;;;;;;;4.28;3.00;;;;;;;15.80;99.37;100604.50;4935356;29;20035;-85
2021/07/04 03:12:14;;;;;;;6.25;3.10;;;;;;;15.71;100.00;100603.34;4944718;29;20108;-85
2021/07/04 03:14:41;;;;;;;3.72;3.15;;;;;;;15.80;99.94;100609.91;4933238;29;20032;-85
2021/07/04 03:17:07;;;;;;;3.45;3.15;;;;;;;15.78;99.71;100604.09;4924255;29;20102;-85
2021/07/04 03:19:33;;;;;;;6.20;3.00;;;;;;;15.78;100.00;100606.81;4931266;29;20066;-85
2021/07/04 03:22:02;;;;;;;3.90;3.15;;;;;;;15.92;99.39;100604.09;4928459;29;20455;-85
2021/07/04 03:24:28;;;;;;;3.90;3.20;;;;;;;15.83;100.00;100606.41;4941898;29;20027;-85
2021/07/04 03:26:54;;;;;;;6.18;3.20;;;;;;;15.93;99.62;100599.44;4918713;28;20066;-85
2021/07/04 03:29:22;;;;;;;5.15;3.03;;;;;;;15.85;99.85;100604.09;4939203;29;20055;-85
2021/07/04 03:31:48;;;;;;;5.00;3.50;;;;;;;15.87;100.00;100598.28;4931812;28;20118;-85
2021/07/04 03:34:15;;;;;;;3.78;3.38;;;;;;;15.90;99.50;100598.28;4957460;29;20031;-85
2021/07/04 03:36:42;;;;;;;5.57;3.58;;;;;;;15.96;99.83;100595.91;4955633;29;20059;-85
2021/07/04 03:39:11;;;;;;;3.95;3.55;;;;;;;16.08;99.59;100598.22;4938807;29;20039;-85
2021/07/04 03:41:38;;;;;;;4.15;3.40;;;;;;;16.04;99.84;100597.47;4950878;28;20488;-86
2021/07/04 03:44:05;;;;;;;5.28;3.42;;;;;;;16.12;99.63;100599.75;4937058;29;20099;-85
2021/07/04 03:46:31;;;;;;;5.93;3.60;;;;;;;16.13;99.63;100595.09;4944424;28;20412;-85
2021/07/04 03:48:57;;;;;;;4.95;3.78;;;;;;;16.06;99.87;100606.78;4949880;29;20039;-85
2021/07/04 03:51:29;;;;;;;4.50;3.40;;;;;;;16.06;99.82;100604.06;4935360;29;20031;-85
2021/07/04 03:53:58;;;;;;;5.75;3.53;;;;;;;16.07;99.46;100604.81;4934418;29;20034;-85
2021/07/04 03:56:23;;;;;;;4.00;3.47;;;;;;;16.20;98.75;100604.00;4933577;29;20287;-85
2021/07/04 03:58:51;;;;;;;5.82;3.90;;;;;;;16.08;99.68;100607.16;4914447;29;20035;-85
2021/07/04 04:01:19;;;;;;;3.90;3.50;;;;;;;16.12;100.00;100599.75;4931836;28;20032;-85
2021/07/04 04:03:49;;;;;;;5.15;4.15;;;;;;;16.20;99.90;100600.53;4919182;29;20027;-85
2021/07/04 04:06:16;;;;;;;6.45;4.10;;;;;;;16.34;98.61;100591.53;4930556;29;20126;-85
2021/07/04 04:08:46;;;;;;;5.57;3.75;;;;;;;16.23;99.56;100605.94;4934353;29;20616;-85
2021/07/04 04:11:18;;;;;;;6.22;3.85;;;;;;;16.35;99.65;100599.28;4946506;29;20066;-85
2021/07/04 04:13:47;;;;;;;6.55;3.65;;;;;;;16.38;99.76;100603.16;4924306;29;20107;-85
2021/07/04 04:16:18;;;;;;;6.03;3.88;;;;;;;16.16;100.00;100608.66;4921922;29;20038;-85
2021/07/04 04:18:44;;;;;;;5.45;3.80;;;;;;;16.16;100.00;100605.19;4934979;29;20035;-85
2021/07/04 04:21:11;;;;;;;6.13;3.53;;;;;;;16.29;100.00;100614.44;4953255;29;20055;-85
2021/07/04 04:23:39;;;;;;;7.20;3.58;;;;;;;16.37;100.00;100604.31;4930086;29;20024;-85
2021/07/04 04:26:08;;;;;;;7.32;3.70;;;;;;;16.26;100.00;100610.56;4938025;29;20535;-85
2021/07/04 04:28:33;;;;;;;4.97;3.85;;;;;;;16.37;100.00;100605.09;4939177;29;20063;-85
2021/07/04 04:30:59;;;;;;;4.20;3.75;;;;;;;16.44;100.00;100604.28;4918514;29;20027;-86
2021/07/04 04:33:25;;;;;;;4.75;3.65;;;;;;;16.36;100.00;100619.84;4949224;29;20032;-86
2021/07/04 04:35:52;;;;;;;6.55;3.85;;;;;;;16.39;100.00;100615.59;4929390;29;20036;-85
2021/07/04 04:38:17;;;;;;;4.47;3.85;;;;;;;16.43;100.00;100610.91;4934705;29;20039;-85
2021/07/04 04:40:43;;;;;;;4.00;3.60;;;;;;;16.57;100.00;100616.31;4930812;29;20019;-85
2021/07/04 04:43:09;;;;;;;4.38;3.97;;;;;;;16.66;100.00;100613.94;4949540;29;20118;-85
2021/07/04 04:45:34;;;;;;;4.78;4.10;;;;;;;16.72;100.00;100615.06;4920032;29;20043;-85
2021/07/04 04:48:00;;;;;;;5.50;3.90;;;;;;;16.84;100.00;100611.91;4937635;29;20035;-85
2021/07/04 04:50:25;;;;;;;5.88;3.85;;;;;;;16.89;100.00;100612.25;4919462;29;20042;-85
2021/07/04 04:52:51;;;;;;;5.38;3.97;;;;;;;17.00;100.00;100609.44;4938110;29;20039;-85
2021/07/04 04:55:17;;;;;;;5.53;4.07;;;;;;;17.07;100.00;100596.56;4947880;28;20042;-85
2021/07/04 04:57:43;;;;;;;5.15;3.85;;;;;;;17.14;100.00;100598.47;4917838;28;20472;-85
2021/07/04 05:00:13;;;;;;;8.40;4.35;;;;;;;17.24;100.00;100600.34;4934356;29;20118;-84
2021/07/04 05:02:39;;;;;;;7.35;4.22;;;;;;;17.42;100.00;100603.69;4932137;29;20510;-85
2021/07/04 05:05:06;;;;;;;10.15;5.50;;;;;;;17.60;100.00;100600.84;4927373;29;20027;-84
2021/07/04 05:07:32;;;;;;;7.43;4.78;;;;;;;17.71;100.00;100599.56;4915736;29;20027;-84
2021/07/04 05:09:58;;;;;;;8.25;4.93;;;;;;;17.82;100.00;100594.78;4949328;29;20078;-85
2021/07/04 05:12:23;;;;;;;6.60;4.72;;;;;;;17.84;100.00;100594.38;4950510;29;20047;-84
2021/07/04 05:14:49;;;;;;;8.00;4.35;;;;;;;17.95;100.00;100603.22;4946107;29;20031;-84
2021/07/04 05:17:16;;;;;;;6.30;4.20;;;;;;;18.28;100.00;100599.72;4934721;29;20050;-84
2021/07/04 05:19:42;;;;;;;7.68;4.80;;;;;;;19.15;99.28;100598.94;4935668;29;20037;-84
2021/07/04 05:22:07;;;;;;;5.50;4.22;;;;;;;20.38;93.09;100594.03;4951215;29;20470;-84
2021/07/04 05:24:33;;;;;;;6.90;4.15;;;;;;;21.63;86.98;100587.97;4929914;29;20035;-84
2021/07/04 05:26:58;;;;;;;5.68;3.92;;;;;;;22.37;81.77;100597.72;4947619;29;20039;-83
2021/07/04 05:29:24;;;;;;;6.15;3.70;;;;;;;23.32;77.07;100602.28;4945642;29;20415;-83
2021/07/04 05:31:53;;;;;;;4.03;3.60;;;;;;;23.96;74.13;100599.66;4949528;29;20039;-84
2021/07/04 05:34:18;;;;;;;5.40;3.60;;;;;;;24.61;70.80;100605.16;4943190;28;20027;-84
2021/07/04 05:36:47;;;;;;;5.63;3.60;;;;;;;25.09;67.68;100597.41;4932853;29;20511;-84
2021/07/04 05:39:12;;;;;;;4.68;3.20;;;;;;;25.51;66.33;100592.94;4929794;29;20493;-84
2021/07/04 05:41:38;;;;;;;4.80;3.53;;;;;;;25.80;64.27;100598.78;4920210;29;20047;-85
2021/07/04 05:44:04;;;;;;;6.85;3.25;;;;;;;26.07;64.21;100593.28;4917317;29;20063;-86
2021/07/04 05:46:34;;;;;;;5.85;3.47;;;;;;;26.49;61.35;100593.31;4916374;29;20035;-85
2021/07/04 05:49:00;;;;;;;4.05;3.55;;;;;;;26.61;60.38;100601.44;4920494;29;20058;-86
2021/07/04 05:51:26;;;;;;;5.75;3.40;;;;;;;26.71;60.06;100593.91;4920915;29;20372;-86
2021/07/04 05:53:51;;;;;;;4.07;3.38;;;;;;;26.87;59.03;100593.50;4921160;29;20082;-86
2021/07/04 05:56:17;;;;;;;5.22;3.25;;;;;;;27.04;59.00;100585.59;4917452;29;20039;-87
2021/07/04 05:58:43;;;;;;;6.65;3.13;;;;;;;26.99;58.68;100586.22;4923710;29;20040;-86
2021/07/04 06:01:08;;;;;;;5.80;3.45;;;;;;;26.99;58.05;100581.47;4926669;29;20121;-86
2021/07/04 06:03:34;;;;;;;6.07;3.28;;;;;;;27.04;59.02;100578.06;4913415;29;20019;-86
2021/07/04 06:06:00;;;;;;;4.10;3.00;;;;;;;27.06;59.95;100574.84;4929728;29;20412;-86
2021/07/04 06:08:25;;;;;;;5.20;3.30;;;;;;;27.21;60.16;100581.19;4914571;29;20122;-86
2021/07/04 06:10:51;;;;;;;4.32;3.10;;;;;;;27.15;59.85;100577.53;4945531;29;20040;-86
2021/07/04 06:13:18;;;;;;;3.72;3.33;;;;;;;27.17;58.52;100573.09;4931947;29;20027;-86
2021/07/04 06:15:44;;;;;;;9.70;3.20;;;;;;;27.07;58.71;100568.06;4931261;29;20047;-86
2021/07/04 06:18:09;;;;;;;4.72;3.05;;;;;;;27.04;57.84;100577.31;4928267;29;20028;-86
2021/07/04 06:20:35;;;;;;;5.03;3.03;;;;;;;26.93;57.13;100577.03;4931663;29;20059;-86
2021/07/04 06:23:00;;;;;;;3.58;3.20;;;;;;;26.71;60.39;100567.00;4933573;29;20050;-86
2021/07/04 06:25:26;;;;;;;5.45;3.10;;;;;;;26.44;60.91;100571.88;4945453;28;20030;-86
2021/07/04 06:27:52;;;;;;;3.72;2.80;;;;;;;26.19;64.43;100570.22;4946401;29;20067;-86
2021/07/04 06:30:18;;;;;;;5.15;2.83;;;;;;;26.26;62.25;100566.38;4928515;29;20036;-86
2021/07/04 06:32:43;;;;;;;4.85;2.80;;;;;;;26.09;62.22;100567.94;4913918;29;20458;-86
2021/07/04 06:35:11;;;;;;;5.45;3.50;;;;;;;25.84;62.38;100580.06;4949347;29;20047;-86
2021/07/04 06:37:37;;;;;;;5.00;3.05;;;;;;;25.68;65.75;100567.34;4929398;29;20051;-86
2021/07/04 06:40:05;;;;;;;5.13;3.33;;;;;;;25.61;63.56;100570.41;4933111;29;20067;-86
2021/07/04 06:42:30;;;;;;;3.38;2.65;;;;;;;25.49;65.30;100567.78;4932610;29;20050;-86
2021/07/04 06:44:56;;;;;;;3.60;3.20;;;;;;;25.20;65.65;100576.47;4931772;29;20032;-86
2021/07/04 06:47:21;;;;;;;3.15;2.80;;;;;;;24.99;63.92;100569.81;4925576;29;20373;-86
2021/07/04 06:49:47;;;;;;;6.15;3.03;;;;;;;25.00;64.84;100579.63;4952610;29;20050;-86
2021/07/04 06:52:12;;;;;;;4.18;3.17;;;;;;;24.96;64.71;100567.97;4937946;28;20067;-86
2021/07/04 06:54:38;;;;;;;4.25;3.40;;;;;;;24.89;64.42;100573.00;4930398;29;20020;-86
2021/07/04 06:59:48;;;;;;;5.45;2.90;;;;;;;25.01;64.66;100569.34;4918711;28;20047;-86
2021/07/04 07:02:13;;;;;;;3.97;3.15;;;;;;;25.05;63.62;100578.25;4947821;29;20412;-86
2021/07/04 07:04:39;;;;;;;3.22;2.92;;;;;;;25.03;63.47;100575.94;4932825;29;20056;-86
2021/07/04 07:07:04;;;;;;;3.45;3.05;;;;;;;25.15;63.75;100571.53;4950516;29;20043;-86
2021/07/04 07:09:30;;;;;;;4.85;2.97;;;;;;;25.25;65.63;100569.56;4912676;29;20031;-86
2021/07/04 07:11:56;;;;;;;4.68;2.63;;;;;;;25.38;62.20;100570.19;4922079;29;20033;-86
2021/07/04 07:14:21;;;;;;;4.88;2.88;;;;;;;25.36;63.27;100564.38;4940675;28;20483;-86
2021/07/04 07:16:51;;;;;;;3.35;2.97;;;;;;;25.49;62.36;100565.03;4931793;29;20052;-86
2021/07/04 07:19:17;;;;;;;3.08;2.78;;;;;;;25.58;64.04;100565.03;4935717;29;20090;-85
2021/07/04 07:21:42;;;;;;;3.38;2.67;;;;;;;25.76;61.71;100562.28;4918358;29;20035;-86
2021/07/04 07:24:09;;;;;;;5.15;3.55;;;;;;;25.81;59.62;100569.94;4933192;29;20039;-85
2021/07/04 07:26:40;;;;;;;2.83;2.45;;;;;;;25.86;61.70;100561.06;4919438;29;20045;-85
2021/07/04 07:29:05;;;;;;;5.55;3.00;;;;;;;25.88;63.45;100556.59;4949428;29;20121;-86
2021/07/04 07:31:31;;;;;;;3.75;2.92;;;;;;;25.84;58.37;100553.22;4941234;29;20103;-86
2021/07/04 07:33:57;;;;;;;4.47;2.72;;;;;;;25.98;59.90;100551.06;4934990;29;20042;-86
2021/07/04 07:36:25;;;;;;;4.18;2.80;;;;;;;26.02;59.73;100554.41;4916492;29;20066;-85
2021/07/04 07:38:51;;;;;;;2.97;2.42;;;;;;;26.14;58.34;100559.81;4937368;29;20043;-86
2021/07/04 07:41:16;;;;;;;3.40;2.47;;;;;;;26.29;57.89;100552.41;4931804;29;20063;-85
2021/07/04 07:43:43;;;;;;;2.80;2.55;;;;;;;26.39;55.74;100545.63;4935381;28;20096;-86
2021/07/04 07:46:09;;;;;;;3.63;2.50;;;;;;;26.47;56.63;100551.56;4931182;29;20227;-85
2021/07/04 07:48:34;;;;;;;3.28;2.97;;;;;;;26.55;60.49;100550.78;4934830;29;20086;-86
2021/07/04 07:51:11;;;;;;;2.67;2.05;;;;;;;26.70;57.67;100548.91;4917392;29;20049;-86
2021/07/04 07:53:37;;;;;;;4.20;2.60;;;;;;;26.90;56.63;100547.56;4910893;29;20062;-86
2021/07/04 07:56:02;;;;;;;2.53;2.33;;;;;;;26.81;53.10;100551.13;4930960;29;20493;-85
2021/07/04 07:58:44;;;;;;;3.10;2.55;;;;;;;26.86;53.55;100555.28;4951123;29;20039;-74
2021/07/04 08:01:13;;;;;;;3.40;2.42;;;;;;;26.81;53.92;100558.69;4946390;28;20035;-74
2021/07/04 08:03:38;;;;;;;3.03;2.72;;;;;;;26.81;54.16;100550.41;4960846;28;20043;-74
2021/07/04 08:06:04;;;;;;;3.67;2.15;;;;;;;26.87;53.88;100556.81;4941450;29;20509;-75
2021/07/04 08:08:29;;;;;;;3.90;2.60;;;;;;;26.86;52.82;100547.75;4943122;29;20027;-73
2021/07/04 08:10:55;;;;;;;3.50;2.70;;;;;;;26.90;52.15;100544.81;4934295;29;20457;-74
2021/07/04 08:13:20;;;;;;;2.97;2.40;;;;;;;26.94;53.31;100542.63;4934461;29;20019;-75
2021/07/04 08:15:46;;;;;;;3.65;2.80;;;;;;;26.94;52.40;100543.41;4936459;29;20404;-75
2021/07/04 08:18:11;;;;;;;2.50;2.30;;;;;;;27.07;51.93;100538.41;4951121;29;20031;-74
2021/07/04 08:20:37;;;;;;;2.90;2.53;;;;;;;27.15;54.26;100536.81;4954327;29;20031;-74
2021/07/04 08:23:03;;;;;;;3.33;2.95;;;;;;;27.24;53.64;100542.28;4937236;29;20040;-74
2021/07/04 08:25:29;;;;;;;5.57;2.95;;;;;;;27.40;52.57;100535.59;4952687;29;20043;-75
2021/07/04 08:27:55;;;;;;;5.47;3.40;;;;;;;27.49;51.20;100535.50;4916407;28;20085;-75
2021/07/04 08:30:22;;;;;;;3.92;2.78;;;;;;;27.48;51.47;100537.53;4913894;29;20153;-73
2021/07/04 08:32:47;;;;;;;4.13;3.15;;;;;;;27.17;52.17;100534.34;4934720;29;20542;-74
2021/07/04 08:35:13;;;;;;;4.30;3.10;;;;;;;27.25;51.63;100549.38;4947406;29;20135;-75
2021/07/04 08:37:39;;;;;;;3.83;2.92;;;;;;;27.27;52.60;100541.38;4933713;28;20062;-75
2021/07/04 08:40:06;;;;;;;3.80;2.75;;;;;;;27.26;52.90;100530.75;4935003;28;20067;-75
2021/07/04 08:42:32;;;;;;;4.75;3.13;;;;;;;27.30;53.73;100525.78;4944815;29;20038;-74
2021/07/04 08:44:57;;;;;;;3.95;3.15;;;;;;;27.38;55.13;100529.78;4949533;29;20486;-74
2021/07/04 08:47:24;;;;;;;5.55;3.50;;;;;;;27.47;53.51;100521.38;4949978;29;20510;-74
2021/07/04 08:49:53;;;;;;;5.05;3.55;;;;;;;27.53;52.72;100522.25;4946087;28;20597;-75
2021/07/04 08:52:18;;;;;;;4.03;3.63;;;;;;;27.37;53.37;100522.72;4945547;29;20057;-74
2021/07/04 08:54:44;;;;;;;3.65;3.10;;;;;;;27.35;54.35;100519.66;4944988;28;20039;-74
2021/07/04 08:57:11;;;;;;;5.25;3.60;;;;;;;27.39;53.65;100520.25;4943889;29;20054;-74
2021/07/04 08:59:41;;;;;;;6.07;3.50;;;;;;;27.46;52.43;100526.19;4947123;29;20089;-75
2021/07/04 09:02:10;;;;;;;5.40;3.55;;;;;;;27.41;54.10;100506.69;4950281;29;20039;-74
2021/07/04 09:04:36;;;;;;;5.95;3.53;;;;;;;27.48;55.30;100514.63;4943040;29;20040;-75
2021/07/04 09:07:03;;;;;;;3.70;3.40;;;;;;;27.53;54.53;100516.72;4952291;29;20102;-75
2021/07/04 09:09:31;;;;;;;4.57;3.38;;;;;;;27.42;55.22;100502.69;4949833;29;20041;-75
2021/07/04 09:12:07;;;;;;;4.53;3.65;;;;;;;27.64;54.59;100512.16;4939072;29;20031;-75
2021/07/04 09:14:41;;;;;;;5.60;3.67;;;;;;;27.80;54.76;100516.47;4950912;29;20598;-75
2021/07/04 09:17:11;;;;;;;4.70;3.60;;;;;;;28.02;54.78;100505.84;4949271;28;20118;-73
2021/07/04 09:19:40;;;;;;;8.50;4.00;;;;;;;27.95;52.46;100511.72;4949143;29;20085;-74
2021/07/04 09:22:08;;;;;;;4.40;3.70;;;;;;;28.12;54.69;100507.25;4951248;29;20035;-75
2021/07/04 09:24:43;;;;;;;5.00;3.83;;;;;;;28.20;53.57;100505.63;4952278;29;20367;-75
2021/07/04 09:27:14;;;;;;;5.72;3.70;;;;;;;28.28;53.71;100494.94;4929501;29;20058;-75
2021/07/04 09:29:43;;;;;;;8.77;4.30;;;;;;;28.40;54.23;100502.91;4941884;29;20430;-74
2021/07/04 09:32:20;;;;;;;4.13;3.50;;;;;;;28.49;54.23;100491.69;4949813;29;20046;-74
2021/07/04 09:34:56;;;;;;;6.30;3.90;;;;;;;28.49;54.08;100499.28;4948461;29;20470;-75
2021/07/04 09:37:37;;;;;;;6.28;3.95;;;;;;;28.43;51.84;100488.09;4946560;29;20031;-74
2021/07/04 09:40:11;;;;;;;6.82;4.05;;;;;;;28.68;52.84;100491.50;4948693;28;20035;-74
2021/07/04 09:42:55;;;;;;;5.55;4.03;;;;;;;28.97;52.40;100494.94;4945534;29;20162;-75
2021/07/04 09:45:23;;;;;;;5.88;4.05;;;;;;;29.05;49.75;100500.84;4936745;29;20043;-74
2021/07/04 09:47:57;;;;;;;6.38;4.45;;;;;;;28.93;48.72;100490.84;4943442;29;20893;-74
2021/07/04 09:50:24;;;;;;;4.78;3.80;;;;;;;28.93;51.11;100482.50;4951734;28;20118;-74
2021/07/04 09:53:00;;;;;;;7.57;4.13;;;;;;;28.76;51.38;100479.53;4939639;29;20054;-74
2021/07/04 09:55:27;;;;;;;7.43;3.78;;;;;;;28.72;52.41;100487.28;4925110;29;20884;-74
2021/07/04 09:58:01;;;;;;;4.55;3.70;;;;;;;28.67;52.05;100476.88;4942371;29;20031;-72
2021/07/04 10:00:29;;;;;;;4.28;3.85;;;;;;;28.91;53.22;100479.47;4949216;29;20065;-74
2021/07/04 10:03:11;;;;;;;6.68;4.10;;;;;;;28.90;51.83;100469.63;4947089;29;20035;-74
2021/07/04 10:05:38;;;;;;;11.05;4.18;;;;;;;28.92;51.80;100476.19;4945197;29;20047;-74
2021/07/04 10:08:24;;;;;;;5.10;4.03;;;;;;;28.60;49.24;100476.50;4947587;28;20497;-74
2021/07/04 10:10:55;;;;;;;5.65;4.03;;;;;;;28.39;50.29;100467.38;4929355;29;20521;-74
2021/07/04 10:13:22;;;;;;;7.22;4.30;;;;;;;28.39;52.66;100472.91;4947445;29;20130;-73
2021/07/04 10:15:47;;;;;;;5.60;3.75;;;;;;;28.53;51.04;100472.88;4951496;29;20448;-74
2021/07/04 10:18:14;;;;;;;4.70;3.70;;;;;;;28.71;53.38;100473.88;4948314;28;20118;-74
2021/07/04 10:20:42;;;;;;;5.68;3.63;;;;;;;28.88;54.53;100474.91;4944039;29;20035;-74
2021/07/04 10:23:10;;;;;;;4.63;3.63;;;;;;;28.95;51.72;100474.47;4935347;29;20027;-74
2021/07/04 10:25:36;;;;;;;5.28;3.70;;;;;;;28.86;52.52;100466.28;4933337;29;20134;-74
2021/07/04 10:28:03;;;;;;;6.35;4.35;;;;;;;28.84;49.99;100475.06;4927593;29;20130;-74
2021/07/04 10:30:31;;;;;;;4.75;3.83;;;;;;;28.70;52.27;100464.06;4930773;29;20035;-74
2021/07/04 10:33:13;;;;;;;4.38;3.97;;;;;;;28.49;50.77;100455.66;4946171;28;20019;-74
2021/07/04 10:36:09;;;;;;;4.80;4.30;;;;;;;28.46;50.99;100453.88;4926073;29;20086;-74
2021/07/04 10:38:57;;;;;;;4.95;3.85;;;;;;;28.31;52.40;100461.47;4941544;28;20054;-75
2021/07/04 10:41:27;;;;;;;6.82;4.10;;;;;;;28.48;49.57;100454.16;4944452;29;20561;-74
2021/07/04 10:44:09;;;;;;;5.78;3.90;;;;;;;28.46;51.58;100445.56;4945031;28;20055;-74
2021/07/04 10:46:44;;;;;;;6.28;4.13;;;;;;;28.57;51.39;100455.31;4947397;29;20110;-74
2021/07/04 10:49:15;;;;;;;7.75;4.03;;;;;;;28.65;52.59;100453.66;4948681;29;20456;-74
2021/07/04 10:52:03;;;;;;;5.95;3.53;;;;;;;28.84;52.23;100449.38;4949700;28;20054;-74
2021/07/04 10:54:41;;;;;;;8.93;4.45;;;;;;;29.17;51.80;100444.25;4942975;28;20031;-73
2021/07/04 10:57:10;;;;;;;5.72;4.05;;;;;;;29.64;52.14;100445.72;4935224;29;20046;-75
2021/07/04 11:00:10;;;;;;;8.38;4.20;;;;;;;29.97;48.74;100438.47;4946723;28;20031;-74
2021/07/04 11:02:46;;;;;;;4.53;3.75;;;;;;;30.19;51.26;100432.31;4951113;29;20033;-74
2021/07/04 11:05:14;;;;;;;5.00;3.50;;;;;;;30.09;48.76;100437.31;4951788;29;20027;-74
2021/07/04 11:07:54;;;;;;;5.70;4.10;;;;;;;30.01;49.23;100433.47;4951182;29;20433;-73
2021/07/04 11:10:28;;;;;;;8.23;4.75;;;;;;;30.10;49.45;100435.31;4949648;29;20031;-75
2021/07/04 11:13:25;;;;;;;6.30;4.38;;;;;;;29.94;47.36;100438.72;4952190;29;20058;-74
2021/07/04 11:16:05;;;;;;;7.30;4.30;;;;;;;29.55;48.50;100432.78;4946453;29;20047;-75
2021/07/04 11:18:42;;;;;;;6.20;3.87;;;;;;;29.36;50.74;100431.59;4932110;29;20035;-74
2021/07/04 11:21:08;;;;;;;6.35;4.40;;;;;;;29.14;51.11;100428.56;4949266;29;20042;-74
2021/07/04 11:23:34;;;;;;;5.15;3.80;;;;;;;29.02;53.50;100429.66;4950662;29;20031;-74
2021/07/04 11:26:11;;;;;;;4.63;3.67;;;;;;;29.00;51.17;100426.59;4944372;28;20039;-74
2021/07/04 11:28:39;;;;;;;9.13;4.30;;;;;;;29.22;49.97;100419.34;4951420;29;20110;-75
2021/07/04 11:31:15;;;;;;;6.07;4.28;;;;;;;29.40;50.47;100421.03;4933935;29;20066;-74
2021/07/04 11:33:42;;;;;;;6.85;4.38;;;;;;;29.77;50.18;100410.78;4948888;29;20031;-74